Time;durP1;ratioP1;P1;durP2;ratioP2;P2;SDS_P1;SDS_P2;PMS_P1;PMS_P2;Temp;Humidity;BMP_temperature;BMP_pressure;BME280_temperature;BME280_humidity;BME280_pressure;Samples;Min_cycle;Max_cycle;Signal;HPM_P1;HPM_P2
2022/10/20 00:00:10;;;;;;;19.52;7.70;;;;;;;;;;5073815;28;20154;-68
2022/10/20 00:02:42;;;;;;;25.95;8.50;;;;;;;;;;5063821;28;20394;-67
2022/10/20 00:05:08;;;;;;;22.92;7.97;;;;;;;;;;5065162;28;20028;-67
2022/10/20 00:07:37;;;;;;;27.75;8.32;;;;;;;;;;5066576;28;20109;-67
2022/10/20 00:10:03;;;;;;;24.00;7.63;;;;;;;;;;5065544;28;20032;-68
2022/10/20 00:12:35;;;;;;;25.55;8.07;;;;;;;;;;5069602;28;20667;-68
2022/10/20 00:15:01;;;;;;;23.08;8.18;;;;;;;;;;5075234;28;20767;-68
2022/10/20 00:17:28;;;;;;;21.50;8.50;;;;;;;;;;5071523;28;20101;-68
2022/10/20 00:19:54;;;;;;;;;;;;;;;;;;5066706;28;20618;-67
2022/10/20 00:22:32;;;;;;;24.42;8.75;;;;;;;;;;5076325;28;20633;-68
2022/10/20 00:25:18;;;;;;;24.90;8.00;;;;;;;;;;5065690;28;20033;-67
2022/10/20 00:27:56;;;;;;;21.52;8.70;;;;;;;;;;5060956;28;20564;-68
2022/10/20 00:30:22;;;;;;;22.83;8.48;;;;;;;;;;5071888;28;20040;-68
2022/10/20 00:32:51;;;;;;;25.20;8.32;;;;;;;;;;5063964;28;20027;-68
2022/10/20 00:35:18;;;;;;;23.95;8.63;;;;;;;;;;5074227;28;20048;-68
2022/10/20 00:37:50;;;;;;;26.35;9.50;;;;;;;;;;5065178;28;20016;-68
2022/10/20 00:40:16;;;;;;;22.88;8.43;;;;;;;;;;5066432;28;20032;-67
2022/10/20 00:42:45;;;;;;;22.95;8.98;;;;;;;;;;5064084;28;20024;-67
2022/10/20 00:45:12;;;;;;;22.05;8.32;;;;;;;;;;5065206;28;20070;-67
2022/10/20 00:47:42;;;;;;;24.35;8.05;;;;;;;;;;5060486;28;20020;-67
2022/10/20 00:50:11;;;;;;;24.52;8.50;;;;;;;;;;5073662;28;20065;-67
2022/10/20 00:52:38;;;;;;;20.70;7.57;;;;;;;;;;5063579;28;20595;-67
2022/10/20 00:55:11;;;;;;;26.02;7.30;;;;;;;;;;5072550;28;20613;-67
2022/10/20 00:57:47;;;;;;;24.23;7.63;;;;;;;;;;5061592;28;20066;-67
2022/10/20 01:00:19;;;;;;;25.58;6.88;;;;;;;;;;5070065;28;20248;-68
2022/10/20 01:02:58;;;;;;;23.90;7.10;;;;;;;;;;5066043;28;20440;-68
2022/10/20 01:05:30;;;;;;;22.15;6.63;;;;;;;;;;5072396;28;20039;-67
2022/10/20 01:08:05;;;;;;;18.10;6.82;;;;;;;;;;5066473;28;20225;-67
2022/10/20 01:10:37;;;;;;;25.40;7.35;;;;;;;;;;5076161;28;20040;-67
2022/10/20 01:13:11;;;;;;;22.98;7.50;;;;;;;;;;5068630;28;20489;-67
2022/10/20 01:16:04;;;;;;;24.10;7.40;;;;;;;;;;5063988;28;20093;-67
2022/10/20 01:18:48;;;;;;;20.45;7.03;;;;;;;;;;5003123;28;20653;-67
2022/10/20 01:21:20;;;;;;;22.48;7.38;;;;;;;;;;5004666;28;20045;-67
2022/10/20 01:24:05;;;;;;;24.27;7.28;;;;;;;;;;4981969;28;20520;-67
2022/10/20 01:26:37;;;;;;;22.33;7.50;;;;;;;;;;5001995;28;20384;-68
2022/10/20 01:29:22;;;;;;;17.23;6.60;;;;;;;;;;5002107;28;20038;-68
2022/10/20 01:32:03;;;;;;;19.92;6.63;;;;;;;;;;5000681;28;20132;-67
2022/10/20 01:35:04;;;;;;;20.52;6.88;;;;;;;;;;5003613;28;20046;-68
2022/10/20 01:37:33;;;;;;;18.75;6.55;;;;;;;;;;4963624;28;20053;-68
2022/10/20 01:40:08;;;;;;;15.80;6.28;;;;;;;;;;4998851;28;20080;-67
2022/10/20 01:42:36;;;;;;;19.23;7.20;;;;;;;;;;5002627;28;20045;-66
2022/10/20 01:45:04;;;;;;;18.63;6.70;;;;;;;;;;4988301;28;20633;-67
2022/10/20 01:47:44;;;;;;;17.08;6.22;;;;;;;;;;4985182;28;21054;-68
2022/10/20 01:50:11;;;;;;;16.90;6.55;;;;;;;;;;5002579;28;20416;-69
2022/10/20 01:52:37;;;;;;;20.35;7.28;;;;;;;;;;5001824;28;20033;-68
2022/10/20 01:55:23;;;;;;;16.33;5.80;;;;;;;;;;5022882;28;20040;-69
2022/10/20 01:57:52;;;;;;;19.38;6.72;;;;;;;;;;5062889;28;20374;-67
2022/10/20 02:00:18;;;;;;;14.63;6.20;;;;;;;;;;5068568;28;20042;-67
2022/10/20 02:03:03;;;;;;;20.95;6.53;;;;;;;;;;5062326;28;20024;-66
2022/10/20 02:05:29;;;;;;;23.98;6.78;;;;;;;;;;5063378;28;20442;-67
2022/10/20 02:08:03;;;;;;;17.55;6.60;;;;;;;;;;5065933;28;20099;-68
2022/10/20 02:10:35;;;;;;;15.88;5.88;;;;;;;;;;5070927;28;20028;-67
2022/10/20 02:13:04;;;;;;;18.13;6.60;;;;;;;;;;5070865;28;20055;-68
2022/10/20 02:15:39;;;;;;;20.80;6.80;;;;;;;;;;5068949;28;20040;-68
2022/10/20 02:18:06;;;;;;;20.83;6.75;;;;;;;;;;5049037;28;20044;-68
2022/10/20 02:20:36;;;;;;;16.40;6.68;;;;;;;;;;5060144;28;20387;-68
2022/10/20 02:23:04;;;;;;;19.75;7.05;;;;;;;;;;5063805;28;20024;-68
2022/10/20 02:25:36;;;;;;;17.30;6.97;;;;;;;;;;5066218;28;20023;-67
2022/10/20 02:28:04;;;;;;;19.17;6.22;;;;;;;;;;5061347;28;20036;-67
2022/10/20 02:30:34;;;;;;;15.45;5.70;;;;;;;;;;5064302;28;20066;-67
2022/10/20 02:33:09;;;;;;;17.38;6.68;;;;;;;;;;5067983;28;20104;-68
2022/10/20 02:35:42;;;;;;;21.23;6.40;;;;;;;;;;5062575;28;20077;-69
2022/10/20 02:38:11;;;;;;;20.00;6.10;;;;;;;;;;5071482;28;20490;-67
2022/10/20 02:40:38;;;;;;;16.92;6.00;;;;;;;;;;5060235;28;20032;-67
2022/10/20 02:43:25;;;;;;;18.65;5.95;;;;;;;;;;5066190;28;20020;-67
2022/10/20 02:45:53;;;;;;;24.45;6.60;;;;;;;;;;5067027;28;20090;-67
2022/10/20 02:48:25;;;;;;;18.63;6.32;;;;;;;;;;5061320;28;20094;-68
2022/10/20 02:50:51;;;;;;;16.98;6.50;;;;;;;;;;5060469;28;20036;-68
2022/10/20 02:53:17;;;;;;;;;;;;;;;;;;5065667;28;20048;-67
2022/10/20 02:55:50;;;;;;;22.07;6.23;;;;;;;;;;5060955;28;20339;-67
2022/10/20 02:58:28;;;;;;;20.00;5.90;;;;;;;;;;5059787;28;20047;-68
2022/10/20 03:01:03;;;;;;;18.25;5.78;;;;;;;;;;5064819;28;20769;-67
2022/10/20 03:03:35;;;;;;;22.05;5.70;;;;;;;;;;5060774;28;20032;-67
2022/10/20 03:06:18;;;;;;;20.67;6.05;;;;;;;;;;5062207;28;20032;-67
2022/10/20 03:08:44;;;;;;;22.08;5.88;;;;;;;;;;5061376;28;20043;-68
2022/10/20 03:11:19;;;;;;;22.17;5.45;;;;;;;;;;5060518;28;20369;-68
2022/10/20 03:13:48;;;;;;;23.52;5.80;;;;;;;;;;5064187;28;20040;-69
2022/10/20 03:16:20;;;;;;;20.25;4.68;;;;;;;;;;5065194;28;20114;-68
2022/10/20 03:18:51;;;;;;;30.85;7.60;;;;;;;;;;5055870;28;20163;-68
2022/10/20 03:21:40;;;;;;;23.95;6.63;;;;;;;;;;5059182;28;20564;-69
2022/10/20 03:24:19;;;;;;;21.30;6.00;;;;;;;;;;5063980;28;20024;-69
2022/10/20 03:26:48;;;;;;;18.60;6.10;;;;;;;;;;5068265;28;20450;-67
2022/10/20 03:29:17;;;;;;;21.05;5.53;;;;;;;;;;5064218;28;20036;-67
2022/10/20 03:31:43;;;;;;;19.92;4.90;;;;;;;;;;5063944;28;20432;-67
2022/10/20 03:34:09;;;;;;;;;;;;;;;;;;5061891;28;20663;-66
2022/10/20 03:37:00;;;;;;;15.73;5.18;;;;;;;;;;5062089;28;19916;-67
2022/10/20 03:39:33;;;;;;;19.20;5.00;;;;;;;;;;4969819;28;20045;-68
2022/10/20 03:42:02;;;;;;;21.05;5.95;;;;;;;;;;4971553;28;20489;-68
2022/10/20 03:44:31;;;;;;;27.42;7.03;;;;;;;;;;4952761;28;20089;-68
2022/10/20 03:47:03;;;;;;;20.40;6.90;;;;;;;;;;4970894;28;20053;-69
2022/10/20 03:49:30;;;;;;;18.42;6.00;;;;;;;;;;4963572;28;20189;-68
2022/10/20 03:51:57;;;;;;;19.88;6.32;;;;;;;;;;4955770;28;20875;-68
2022/10/20 03:54:27;;;;;;;19.67;5.90;;;;;;;;;;4978422;28;20033;-68
2022/10/20 03:56:55;;;;;;;22.95;6.15;;;;;;;;;;4951085;28;21154;-68
2022/10/20 03:59:22;;;;;;;23.17;6.13;;;;;;;;;;4982321;28;20493;-68
2022/10/20 04:01:50;;;;;;;;;;;;;;;;;;4970092;28;20069;-68
2022/10/20 04:04:20;;;;;;;21.60;6.22;;;;;;;;;;4977559;28;19920;-67
2022/10/20 04:06:55;;;;;;;23.45;5.38;;;;;;;;;;4975617;28;20072;-67
2022/10/20 04:09:27;;;;;;;21.90;5.82;;;;;;;;;;4975186;28;20598;-67
2022/10/20 04:11:53;;;;;;;17.90;5.18;;;;;;;;;;4977478;28;21374;-67
2022/10/20 04:14:22;;;;;;;;;;;;;;;;;;4981382;28;20967;-67
2022/10/20 04:16:50;;;;;;;18.50;5.40;;;;;;;;;;5021842;28;20248;-68
2022/10/20 04:19:16;;;;;;;20.23;5.70;;;;;;;;;;5061415;28;20433;-68
2022/10/20 04:21:43;;;;;;;;;;;;;;;;;;5067707;28;20038;-67
2022/10/20 04:24:09;;;;;;;18.92;5.60;;;;;;;;;;5064862;28;20586;-68
2022/10/20 04:26:35;;;;;;;;;;;;;;;;;;5055845;28;20359;-69
2022/10/20 04:29:01;;;;;;;25.05;5.63;;;;;;;;;;5073141;28;19946;-68
2022/10/20 04:31:30;;;;;;;17.67;5.22;;;;;;;;;;5066460;28;20034;-68
2022/10/20 04:33:57;;;;;;;16.17;4.90;;;;;;;;;;5066318;28;20056;-69
2022/10/20 04:36:23;;;;;;;18.48;5.50;;;;;;;;;;5072241;28;20576;-68
2022/10/20 04:38:49;;;;;;;;;;;;;;;;;;5074465;28;20055;-68
2022/10/20 04:41:15;;;;;;;23.10;6.33;;;;;;;;;;5074918;28;20516;-67
2022/10/20 04:43:41;;;;;;;;;;;;;;;;;;5070021;28;20041;-68
2022/10/20 04:46:10;;;;;;;18.77;6.00;;;;;;;;;;5067450;28;20190;-67
2022/10/20 04:48:47;;;;;;;18.27;5.93;;;;;;;;;;5060666;28;20032;-68
2022/10/20 04:51:19;;;;;;;23.92;6.30;;;;;;;;;;5070587;28;20038;-67
2022/10/20 04:53:46;;;;;;;18.00;5.80;;;;;;;;;;5067619;28;20075;-68
2022/10/20 04:56:18;;;;;;;20.67;5.65;;;;;;;;;;5057514;28;20445;-67
2022/10/20 04:59:03;;;;;;;24.95;6.15;;;;;;;;;;5061903;28;20074;-67
2022/10/20 05:01:38;;;;;;;22.20;6.55;;;;;;;;;;5066112;28;20040;-68
2022/10/20 05:04:11;;;;;;;19.88;5.50;;;;;;;;;;5062556;28;20043;-69
2022/10/20 05:06:37;;;;;;;19.42;5.97;;;;;;;;;;5060824;28;20062;-67
2022/10/20 05:09:05;;;;;;;18.30;5.78;;;;;;;;;;5061184;28;20039;-67
2022/10/20 05:11:33;;;;;;;21.35;6.57;;;;;;;;;;5060672;28;20039;-66
2022/10/20 05:13:59;;;;;;;24.38;6.03;;;;;;;;;;5072153;28;20079;-68
2022/10/20 05:16:31;;;;;;;;;;;;;;;;;;5064250;28;20546;-69
2022/10/20 05:19:01;;;;;;;18.88;5.30;;;;;;;;;;5065357;28;19912;-67
2022/10/20 05:21:29;;;;;;;22.67;6.60;;;;;;;;;;5065141;28;20029;-67
2022/10/20 05:23:56;;;;;;;18.58;6.05;;;;;;;;;;5062464;28;20419;-68
2022/10/20 05:26:22;;;;;;;19.60;5.80;;;;;;;;;;5061828;28;20020;-68
2022/10/20 05:28:50;;;;;;;26.15;6.07;;;;;;;;;;5058388;28;20066;-67
2022/10/20 05:31:17;;;;;;;20.27;6.30;;;;;;;;;;5066341;28;20028;-67
2022/10/20 05:33:45;;;;;;;18.65;6.35;;;;;;;;;;5062475;28;20335;-67
2022/10/20 05:36:15;;;;;;;18.30;5.80;;;;;;;;;;5066853;28;20491;-68
2022/10/20 05:38:42;;;;;;;19.05;6.05;;;;;;;;;;5062715;28;20086;-68
2022/10/20 05:41:13;;;;;;;22.05;5.32;;;;;;;;;;5061903;28;20043;-68
2022/10/20 05:43:42;;;;;;;24.58;5.53;;;;;;;;;;5062287;28;20029;-67
2022/10/20 05:46:14;;;;;;;20.48;5.80;;;;;;;;;;5059661;28;20067;-68
2022/10/20 05:48:41;;;;;;;20.60;6.00;;;;;;;;;;5059764;28;20036;-68
2022/10/20 05:51:08;;;;;;;19.50;6.15;;;;;;;;;;5064839;28;20066;-67
2022/10/20 05:53:34;;;;;;;19.30;5.70;;;;;;;;;;5057710;28;20192;-68
2022/10/20 05:56:00;;;;;;;;;;;;;;;;;;5063365;28;20035;-67
2022/10/20 05:58:26;;;;;;;21.55;6.57;;;;;;;;;;5066289;28;20479;-68
2022/10/20 06:00:52;;;;;;;;;;;;;;;;;;5063866;28;20156;-67
2022/10/20 06:03:18;;;;;;;21.00;6.78;;;;;;;;;;5067868;28;19919;-68
2022/10/20 06:05:44;;;;;;;23.42;7.07;;;;;;;;;;5067059;28;20024;-68
2022/10/20 06:08:10;;;;;;;;;;;;;;;;;;5069133;28;20024;-67
2022/10/20 06:10:39;;;;;;;21.45;7.05;;;;;;;;;;5064076;28;20607;-67
2022/10/20 06:13:05;;;;;;;21.90;6.72;;;;;;;;;;5069313;28;20545;-69
2022/10/20 06:15:31;;;;;;;;;;;;;;;;;;5065235;28;20069;-67
2022/10/20 06:17:57;;;;;;;22.27;7.13;;;;;;;;;;5066850;28;20320;-69
2022/10/20 06:20:23;;;;;;;;;;;;;;;;;;5068977;28;20560;-67
2022/10/20 06:22:49;;;;;;;25.85;7.95;;;;;;;;;;5063778;28;19918;-68
2022/10/20 06:25:15;;;;;;;22.33;7.00;;;;;;;;;;5066484;28;20028;-67
2022/10/20 06:27:43;;;;;;;;;;;;;;;;;;5061430;28;20039;-69
2022/10/20 06:30:09;;;;;;;20.50;6.93;;;;;;;;;;5063315;28;20029;-68
2022/10/20 06:32:35;;;;;;;20.20;6.70;;;;;;;;;;5065592;28;20053;-67
2022/10/20 06:35:01;;;;;;;;;;;;;;;;;;5063041;28;20602;-67
2022/10/20 06:37:27;;;;;;;22.48;6.82;;;;;;;;;;5066063;28;20346;-68
2022/10/20 06:39:53;;;;;;;;;;;;;;;;;;5058345;28;20035;-67
2022/10/20 06:42:19;;;;;;;23.30;6.90;;;;;;;;;;5058072;28;20284;-66
2022/10/20 06:44:45;;;;;;;;;;;;;;;;;;5060439;28;20031;-68
2022/10/20 06:47:11;;;;;;;21.65;6.07;;;;;;;;;;5068434;28;20275;-68
2022/10/20 06:49:37;;;;;;;;;;;;;;;;;;5061513;28;20058;-66
2022/10/20 06:52:03;;;;;;;19.75;6.95;;;;;;;;;;5069769;28;19916;-68
2022/10/20 06:54:30;;;;;;;22.60;6.55;;;;;;;;;;5064113;28;20032;-67
2022/10/20 06:56:55;;;;;;;;;;;;;;;;;;5063306;28;20028;-68
2022/10/20 06:59:22;;;;;;;22.13;6.70;;;;;;;;;;5067922;28;20080;-68
2022/10/20 07:01:48;;;;;;;23.23;7.50;;;;;;;;;;5066160;28;20038;-68
2022/10/20 07:04:17;;;;;;;25.33;6.93;;;;;;;;;;5064302;28;20044;-68
2022/10/20 07:06:44;;;;;;;24.77;7.38;;;;;;;;;;5059892;28;20071;-68
2022/10/20 07:09:12;;;;;;;17.20;6.40;;;;;;;;;;5058890;28;20344;-67
2022/10/20 07:11:38;;;;;;;17.67;5.72;;;;;;;;;;5059631;28;20067;-68
2022/10/20 07:14:05;;;;;;;17.98;6.03;;;;;;;;;;5061040;28;20474;-68
2022/10/20 07:16:32;;;;;;;22.70;7.13;;;;;;;;;;5066077;28;20028;-67
2022/10/20 07:18:58;;;;;;;24.23;8.05;;;;;;;;;;5065828;28;20028;-67
2022/10/20 07:21:25;;;;;;;24.45;7.20;;;;;;;;;;5068123;28;20036;-67
2022/10/20 07:23:52;;;;;;;23.05;8.30;;;;;;;;;;5068799;28;20027;-67
2022/10/20 07:26:19;;;;;;;20.55;7.53;;;;;;;;;;5065532;28;20563;-67
2022/10/20 07:28:47;;;;;;;24.05;8.77;;;;;;;;;;5066673;28;20539;-68
2022/10/20 07:31:14;;;;;;;19.13;8.10;;;;;;;;;;5068252;28;20039;-68
2022/10/20 07:33:41;;;;;;;29.48;9.75;;;;;;;;;;5063108;28;20053;-68
2022/10/20 07:36:14;;;;;;;26.10;10.90;;;;;;;;;;5062463;28;20291;-68
2022/10/20 07:38:40;;;;;;;24.08;10.82;;;;;;;;;;5061126;28;20131;-67
2022/10/20 07:41:07;;;;;;;28.42;10.82;;;;;;;;;;5067763;28;20497;-67
2022/10/20 07:43:34;;;;;;;25.55;9.85;;;;;;;;;;5064750;28;20478;-68
2022/10/20 07:46:00;;;;;;;24.80;8.73;;;;;;;;;;5070619;28;20441;-68
2022/10/20 07:48:26;;;;;;;18.75;6.70;;;;;;;;;;5068167;28;20028;-68
2022/10/20 07:50:52;;;;;;;17.52;6.25;;;;;;;;;;5062164;28;20388;-68
2022/10/20 07:53:18;;;;;;;19.13;5.97;;;;;;;;;;5071157;28;20333;-68
2022/10/20 07:55:44;;;;;;;13.07;4.82;;;;;;;;;;5065723;28;20039;-68
2022/10/20 07:58:11;;;;;;;17.65;6.68;;;;;;;;;;5073155;28;20032;-67
2022/10/20 08:00:38;;;;;;;17.40;5.78;;;;;;;;;;5069844;28;20040;-67
2022/10/20 08:03:04;;;;;;;21.35;6.53;;;;;;;;;;5065475;28;20320;-67
2022/10/20 08:05:30;;;;;;;17.30;6.13;;;;;;;;;;5069083;28;20297;-67
2022/10/20 08:07:56;;;;;;;16.35;5.47;;;;;;;;;;5061793;28;20085;-68
2022/10/20 08:10:22;;;;;;;16.08;4.93;;;;;;;;;;5068572;28;20024;-68
2022/10/20 08:12:48;;;;;;;15.48;4.97;;;;;;;;;;5065341;28;20660;-69
2022/10/20 08:15:14;;;;;;;17.05;5.25;;;;;;;;;;5067284;28;20032;-69
2022/10/20 08:17:41;;;;;;;15.95;5.03;;;;;;;;;;5063212;28;20036;-67
2022/10/20 08:20:07;;;;;;;15.63;5.10;;;;;;;;;;5071290;28;20125;-67
2022/10/20 08:22:33;;;;;;;19.13;5.45;;;;;;;;;;5075456;28;20038;-68
2022/10/20 08:24:59;;;;;;;18.38;4.70;;;;;;;;;;5070124;28;20151;-67
2022/10/20 08:27:25;;;;;;;12.27;4.28;;;;;;;;;;5072913;28;20323;-67
2022/10/20 08:29:51;;;;;;;13.02;4.90;;;;;;;;;;5059393;28;20033;-68
2022/10/20 08:32:18;;;;;;;16.05;5.20;;;;;;;;;;5064654;28;20093;-69
2022/10/20 08:34:45;;;;;;;13.77;4.65;;;;;;;;;;5067150;28;20052;-69
2022/10/20 08:37:11;;;;;;;15.65;5.55;;;;;;;;;;5070691;28;20627;-69
2022/10/20 08:39:37;;;;;;;14.60;5.68;;;;;;;;;;5068912;28;20035;-69
2022/10/20 08:42:03;;;;;;;21.13;5.80;;;;;;;;;;5065732;28;20024;-68
2022/10/20 08:44:32;;;;;;;15.05;4.85;;;;;;;;;;5067451;28;20039;-67
2022/10/20 08:46:59;;;;;;;14.95;4.95;;;;;;;;;;5057751;28;20267;-68
2022/10/20 08:49:28;;;;;;;16.05;5.22;;;;;;;;;;5066495;28;20039;-69
2022/10/20 08:51:54;;;;;;;16.52;5.57;;;;;;;;;;5062257;28;20055;-68
2022/10/20 08:54:20;;;;;;;15.30;5.10;;;;;;;;;;5068470;28;20040;-68
2022/10/20 08:56:46;;;;;;;18.90;5.63;;;;;;;;;;5065747;28;20040;-68
2022/10/20 08:59:21;;;;;;;15.90;5.20;;;;;;;;;;5071743;28;20039;-69
2022/10/20 09:01:48;;;;;;;14.05;4.38;;;;;;;;;;5066260;28;20028;-69
2022/10/20 09:04:18;;;;;;;16.60;5.35;;;;;;;;;;5072222;28;20032;-68
2022/10/20 09:06:45;;;;;;;16.40;5.38;;;;;;;;;;5062267;28;20027;-67
2022/10/20 09:09:16;;;;;;;24.05;6.05;;;;;;;;;;5069667;28;20226;-68
2022/10/20 09:11:43;;;;;;;23.88;6.00;;;;;;;;;;5065265;28;20039;-68
2022/10/20 09:14:10;;;;;;;17.17;5.45;;;;;;;;;;5071999;28;20719;-68
2022/10/20 09:16:37;;;;;;;17.33;5.35;;;;;;;;;;5063480;28;20031;-69
2022/10/20 09:19:04;;;;;;;21.10;5.80;;;;;;;;;;5068680;28;20333;-69
2022/10/20 09:21:31;;;;;;;18.27;5.03;;;;;;;;;;5069497;28;20032;-68
2022/10/20 09:24:01;;;;;;;17.05;5.13;;;;;;;;;;5062950;28;20089;-68
2022/10/20 09:26:33;;;;;;;19.73;5.38;;;;;;;;;;5064540;28;20031;-68
2022/10/20 09:29:09;;;;;;;16.50;4.90;;;;;;;;;;5073299;28;20450;-68
2022/10/20 09:31:35;;;;;;;;;;;;;;;;;;5070238;28;20144;-68
2022/10/20 09:34:01;;;;;;;14.95;4.60;;;;;;;;;;5075481;28;20180;-69
2022/10/20 09:36:30;;;;;;;16.05;4.80;;;;;;;;;;5075910;28;20068;-69
2022/10/20 09:38:56;;;;;;;17.75;5.40;;;;;;;;;;5068630;28;20032;-68
2022/10/20 09:41:27;;;;;;;16.17;4.20;;;;;;;;;;5078262;28;20034;-68
2022/10/20 09:43:56;;;;;;;15.45;4.00;;;;;;;;;;5063192;28;20043;-68
2022/10/20 09:46:26;;;;;;;20.20;4.60;;;;;;;;;;5066232;28;20486;-68
2022/10/20 09:48:53;;;;;;;15.05;4.57;;;;;;;;;;5061304;28;20036;-69
2022/10/20 09:51:27;;;;;;;18.23;4.97;;;;;;;;;;5062294;28;20040;-67
2022/10/20 09:54:07;;;;;;;21.25;5.05;;;;;;;;;;5065307;28;20035;-68
2022/10/20 09:56:34;;;;;;;20.75;5.00;;;;;;;;;;5067498;28;20046;-70
2022/10/20 09:59:02;;;;;;;17.40;4.88;;;;;;;;;;5071819;28;20581;-69
2022/10/20 10:01:28;;;;;;;16.60;4.57;;;;;;;;;;5070355;28;20141;-68
2022/10/20 10:03:58;;;;;;;23.20;5.53;;;;;;;;;;5067068;28;20086;-68
2022/10/20 10:06:24;;;;;;;14.90;4.55;;;;;;;;;;5066459;28;20036;-67
2022/10/20 10:08:50;;;;;;;19.13;4.90;;;;;;;;;;5069153;28;20430;-68
2022/10/20 10:11:18;;;;;;;14.68;4.30;;;;;;;;;;5066673;28;20481;-67
2022/10/20 10:13:46;;;;;;;16.65;3.95;;;;;;;;;;5067551;28;20035;-68
2022/10/20 10:16:14;;;;;;;19.23;4.05;;;;;;;;;;5062021;28;20042;-68
2022/10/20 10:18:40;;;;;;;16.10;4.32;;;;;;;;;;5067482;28;20051;-68
2022/10/20 10:21:08;;;;;;;12.23;3.80;;;;;;;;;;5061896;28;20073;-68
2022/10/20 10:23:39;;;;;;;14.02;3.60;;;;;;;;;;5060851;28;20032;-69
2022/10/20 10:26:25;;;;;;;13.25;3.60;;;;;;;;;;5064250;28;20113;-68
2022/10/20 10:28:57;;;;;;;18.80;5.03;;;;;;;;;;5067265;28;20020;-67
2022/10/20 10:31:24;;;;;;;15.77;4.38;;;;;;;;;;5066663;28;20036;-68
2022/10/20 10:33:53;;;;;;;15.05;4.45;;;;;;;;;;5060884;28;20450;-69
2022/10/20 10:36:33;;;;;;;15.75;4.32;;;;;;;;;;5068073;28;20559;-68
2022/10/20 10:39:00;;;;;;;15.55;4.82;;;;;;;;;;5063608;28;20032;-68
2022/10/20 10:41:29;;;;;;;13.45;4.10;;;;;;;;;;5064331;28;20043;-67
2022/10/20 10:44:04;;;;;;;14.77;4.60;;;;;;;;;;5063604;28;20028;-67
2022/10/20 10:46:50;;;;;;;15.95;4.50;;;;;;;;;;5063784;28;20350;-68
2022/10/20 10:49:19;;;;;;;14.10;4.30;;;;;;;;;;5059024;28;20478;-68
2022/10/20 10:51:52;;;;;;;16.83;4.63;;;;;;;;;;5059340;28;20029;-67
2022/10/20 10:54:38;;;;;;;16.17;4.47;;;;;;;;;;5062135;28;20403;-67
2022/10/20 10:57:23;;;;;;;14.98;4.45;;;;;;;;;;5067967;28;20420;-69
2022/10/20 10:59:51;;;;;;;13.85;4.50;;;;;;;;;;5067528;28;20655;-69
2022/10/20 11:02:34;;;;;;;19.55;4.72;;;;;;;;;;5069950;28;20097;-68
2022/10/20 11:05:03;;;;;;;15.18;5.07;;;;;;;;;;5074241;28;20020;-68
2022/10/20 11:07:35;;;;;;;14.48;4.40;;;;;;;;;;5070728;28;20023;-68
2022/10/20 11:10:04;;;;;;;17.08;5.03;;;;;;;;;;5068646;28;20107;-67
2022/10/20 11:12:30;;;;;;;15.10;5.10;;;;;;;;;;5061828;28;20081;-69
2022/10/20 11:15:07;;;;;;;14.30;4.55;;;;;;;;;;5061891;28;20063;-69
2022/10/20 11:17:34;;;;;;;17.70;5.05;;;;;;;;;;5061470;28;20036;-68
2022/10/20 11:20:00;;;;;;;16.50;4.25;;;;;;;;;;5064711;28;20702;-68
2022/10/20 11:22:29;;;;;;;14.50;4.38;;;;;;;;;;5069515;28;20043;-69
2022/10/20 11:25:04;;;;;;;13.07;3.90;;;;;;;;;;5056246;28;20596;-69
2022/10/20 11:27:33;;;;;;;17.92;4.13;;;;;;;;;;5067725;28;20115;-68
2022/10/20 11:30:15;;;;;;;12.68;3.65;;;;;;;;;;5074891;28;20032;-67
2022/10/20 11:32:47;;;;;;;12.75;3.67;;;;;;;;;;5064105;28;20054;-67
2022/10/20 11:35:13;;;;;;;18.23;5.28;;;;;;;;;;5066829;28;20048;-68
2022/10/20 11:37:56;;;;;;;15.82;4.82;;;;;;;;;;5062446;28;20023;-69
2022/10/20 11:40:24;;;;;;;17.58;4.68;;;;;;;;;;5065367;28;20043;-69
2022/10/20 11:42:50;;;;;;;20.33;4.88;;;;;;;;;;5060010;28;20028;-68
2022/10/20 11:45:28;;;;;;;15.15;4.32;;;;;;;;;;5069819;28;20151;-68
2022/10/20 11:48:01;;;;;;;18.50;4.93;;;;;;;;;;5055672;28;20115;-68
2022/10/20 11:50:27;;;;;;;14.00;4.40;;;;;;;;;;5067755;28;20035;-69
2022/10/20 11:53:12;;;;;;;16.05;4.15;;;;;;;;;;5058946;28;24176;-67
2022/10/20 11:55:42;;;;;;;15.23;3.80;;;;;;;;;;5055406;28;20459;-68
2022/10/20 11:58:27;;;;;;;17.02;4.43;;;;;;;;;;5068920;28;20667;-68
2022/10/20 12:01:03;;;;;;;18.77;5.33;;;;;;;;;;5062689;28;21187;-69
2022/10/20 12:03:41;;;;;;;16.73;4.47;;;;;;;;;;5072561;28;20272;-69
2022/10/20 12:06:26;;;;;;;13.23;4.22;;;;;;;;;;5064506;28;20313;-68
2022/10/20 12:09:07;;;;;;;18.43;5.77;;;;;;;;;;5061869;28;20036;-68
2022/10/20 12:11:55;;;;;;;14.60;4.53;;;;;;;;;;5076000;28;20280;-69
2022/10/20 12:14:27;;;;;;;15.68;4.05;;;;;;;;;;5069999;28;20034;-69
2022/10/20 12:16:53;;;;;;;15.02;3.95;;;;;;;;;;5068106;28;21884;-68
2022/10/20 12:19:20;;;;;;;17.55;4.47;;;;;;;;;;5062813;28;20029;-69
2022/10/20 12:21:54;;;;;;;12.98;3.65;;;;;;;;;;5064609;28;20023;-69
2022/10/20 12:24:30;;;;;;;15.70;4.05;;;;;;;;;;5065226;28;20028;-70
2022/10/20 12:27:02;;;;;;;18.67;4.53;;;;;;;;;;5064032;28;20576;-68
2022/10/20 12:29:31;;;;;;;17.35;4.00;;;;;;;;;;5072196;28;20035;-68
2022/10/20 12:32:19;;;;;;;17.23;4.57;;;;;;;;;;5063114;28;20143;-68
2022/10/20 12:34:46;;;;;;;15.10;4.20;;;;;;;;;;5062848;28;20049;-69
2022/10/20 12:37:17;;;;;;;16.88;4.78;;;;;;;;;;5068108;28;20036;-69
2022/10/20 12:39:44;;;;;;;13.18;4.22;;;;;;;;;;5066304;28;20028;-69
2022/10/20 12:42:19;;;;;;;16.52;4.60;;;;;;;;;;5066118;28;20496;-68
2022/10/20 12:44:46;;;;;;;16.70;4.13;;;;;;;;;;5066483;28;20054;-68
2022/10/20 12:47:18;;;;;;;16.95;3.80;;;;;;;;;;5068751;28;20443;-68
2022/10/20 12:49:52;;;;;;;16.08;4.00;;;;;;;;;;5062510;28;20032;-68
2022/10/20 12:52:26;;;;;;;18.52;4.75;;;;;;;;;;5065078;28;20067;-68
2022/10/20 12:54:54;;;;;;;15.00;4.40;;;;;;;;;;5063349;28;20357;-68
2022/10/20 12:57:50;;;;;;;19.10;4.50;;;;;;;;;;5066560;28;20145;-68
2022/10/20 13:00:18;;;;;;;16.60;4.45;;;;;;;;;;4980939;28;20057;-69
2022/10/20 13:02:51;;;;;;;18.13;5.70;;;;;;;;;;4979450;28;20034;-69
2022/10/20 13:05:17;;;;;;;15.50;4.82;;;;;;;;;;4974130;28;20065;-70
2022/10/20 13:07:49;;;;;;;19.75;4.80;;;;;;;;;;4969352;28;20038;-69
2022/10/20 13:10:30;;;;;;;18.92;4.10;;;;;;;;;;4972010;28;20050;-70
2022/10/20 13:13:01;;;;;;;19.05;4.80;;;;;;;;;;4965642;28;20204;-68
2022/10/20 13:15:30;;;;;;;15.20;3.97;;;;;;;;;;4974981;28;20164;-69
2022/10/20 13:18:01;;;;;;;15.23;3.95;;;;;;;;;;4968533;28;20042;-70
2022/10/20 13:20:44;;;;;;;13.02;3.50;;;;;;;;;;4974435;28;20367;-68
2022/10/20 13:23:14;;;;;;;16.58;3.60;;;;;;;;;;4975502;28;20251;-68
2022/10/20 13:25:44;;;;;;;15.50;3.92;;;;;;;;;;4971068;28;20514;-69
2022/10/20 13:28:17;;;;;;;15.85;3.97;;;;;;;;;;4978117;28;20058;-68
2022/10/20 13:30:52;;;;;;;17.10;4.22;;;;;;;;;;4975762;28;20400;-67
2022/10/20 13:33:22;;;;;;;14.70;3.88;;;;;;;;;;4975776;28;20096;-70
2022/10/20 13:36:04;;;;;;;19.40;4.30;;;;;;;;;;4983440;28;20519;-68
2022/10/20 13:38:37;;;;;;;13.75;4.07;;;;;;;;;;5066305;28;20113;-69
2022/10/20 13:41:12;;;;;;;15.67;4.40;;;;;;;;;;5069525;28;20032;-69
2022/10/20 13:43:39;;;;;;;15.38;3.97;;;;;;;;;;5068250;28;20463;-69
2022/10/20 13:46:08;;;;;;;13.25;3.58;;;;;;;;;;5065942;28;20054;-69
2022/10/20 13:48:58;;;;;;;16.10;4.05;;;;;;;;;;5061045;28;20028;-68
2022/10/20 13:51:28;;;;;;;16.30;4.43;;;;;;;;;;5059949;28;20552;-68
2022/10/20 13:53:56;;;;;;;15.77;3.33;;;;;;;;;;5058676;28;20032;-68
2022/10/20 13:56:29;;;;;;;12.45;3.75;;;;;;;;;;5066215;28;20030;-67
2022/10/20 13:58:59;;;;;;;16.10;3.83;;;;;;;;;;5062882;28;20138;-69
2022/10/20 14:01:26;;;;;;;14.30;4.03;;;;;;;;;;5062615;28;20056;-68
2022/10/20 14:03:52;;;;;;;14.45;3.40;;;;;;;;;;5063690;28;20449;-69
2022/10/20 14:06:31;;;;;;;13.82;3.85;;;;;;;;;;5066434;28;20027;-69
2022/10/20 14:08:58;;;;;;;15.05;3.90;;;;;;;;;;5065751;28;20029;-68
2022/10/20 14:11:28;;;;;;;13.07;3.70;;;;;;;;;;5059830;28;20024;-69
2022/10/20 14:13:55;;;;;;;14.48;3.85;;;;;;;;;;5062674;28;20140;-69
2022/10/20 14:16:23;;;;;;;14.80;3.70;;;;;;;;;;5064651;28;20028;-69
2022/10/20 14:19:02;;;;;;;14.77;4.35;;;;;;;;;;5065544;28;20114;-68
2022/10/20 14:21:28;;;;;;;14.98;3.83;;;;;;;;;;5062260;28;20125;-68
2022/10/20 14:23:56;;;;;;;17.48;4.20;;;;;;;;;;5055107;28;20036;-68
2022/10/20 14:26:23;;;;;;;14.18;4.28;;;;;;;;;;5058413;28;20082;-69
2022/10/20 14:28:50;;;;;;;14.95;3.83;;;;;;;;;;5065605;28;20028;-69
2022/10/20 14:31:20;;;;;;;15.45;3.70;;;;;;;;;;5064594;28;20119;-67
2022/10/20 14:33:47;;;;;;;16.65;3.72;;;;;;;;;;5069305;28;20493;-68
2022/10/20 14:36:29;;;;;;;14.13;3.60;;;;;;;;;;5065812;28;20040;-68
2022/10/20 14:38:59;;;;;;;16.70;4.18;;;;;;;;;;5062375;28;20029;-68
2022/10/20 14:41:27;;;;;;;16.45;3.67;;;;;;;;;;5068038;28;20320;-68
2022/10/20 14:43:57;;;;;;;15.88;3.80;;;;;;;;;;5057378;28;20027;-68
2022/10/20 14:46:34;;;;;;;16.60;3.63;;;;;;;;;;5065154;28;20408;-67
2022/10/20 14:49:00;;;;;;;15.32;3.95;;;;;;;;;;5060849;28;20246;-71
2022/10/20 14:51:43;;;;;;;18.17;4.55;;;;;;;;;;5062459;28;20093;-69
2022/10/20 14:54:28;;;;;;;15.63;4.03;;;;;;;;;;5063482;28;20433;-69